Time;durP1;ratioP1;P1;durP2;ratioP2;P2;SDS_P1;SDS_P2;PMS_P1;PMS_P2;Temp;Humidity;BMP_temperature;BMP_pressure;BME280_temperature;BME280_humidity;BME280_pressure;Samples;Min_cycle;Max_cycle;Signal;HPM_P1;HPM_P2
2022/01/26 00:00:06;;;;;;;174.55;69.05;;;0.30;99.90;;;;;;5136813;27;20020;-74
2022/01/26 00:08:01;;;;;;;155.73;60.10;;;0.30;99.90;;;;;;5136894;27;20171;-74
2022/01/26 00:10:26;;;;;;;166.13;68.82;;;0.30;99.90;;;;;;5137022;27;20470;-74
2022/01/26 00:12:52;;;;;;;139.57;59.40;;;0.30;99.90;;;;;;5136169;27;20019;-74
2022/01/26 00:15:18;;;;;;;174.05;71.47;;;0.30;99.90;;;;;;5136589;27;20019;-74
2022/01/26 00:17:45;;;;;;;146.15;62.20;;;0.40;99.90;;;;;;5136793;27;20050;-75
2022/01/26 00:20:25;;;;;;;145.07;60.13;;;0.40;99.90;;;;;;5136970;27;20390;-74
2022/01/26 00:38:40;;;;;;;149.27;59.15;;;0.40;99.90;;;;;;5136980;27;19957;-75
2022/01/26 00:41:12;;;;;;;170.10;68.50;;;0.40;99.90;;;;;;5136512;27;20034;-75
2022/01/26 00:43:43;;;;;;;127.30;52.78;;;0.40;99.90;;;;;;5136924;27;20466;-75
2022/01/26 00:46:09;;;;;;;138.50;56.35;;;0.40;99.90;;;;;;5136877;27;20023;-74
2022/01/26 00:48:37;;;;;;;145.45;57.95;;;0.40;99.90;;;;;;5136823;27;20035;-74
2022/01/26 00:51:05;;;;;;;131.18;56.05;;;0.40;99.90;;;;;;5137149;27;20409;-75
2022/01/26 00:53:35;;;;;;;132.00;54.03;;;0.40;99.90;;;;;;5136219;27;20374;-74
2022/01/26 00:56:04;;;;;;;123.47;50.40;;;0.40;99.90;;;;;;5136825;27;20019;-75
2022/01/26 00:58:30;;;;;;;122.45;52.22;;;0.40;99.90;;;;;;5136410;27;20487;-74
2022/01/26 01:00:58;;;;;;;110.20;47.55;;;0.40;99.90;;;;;;5136290;27;20027;-75
2022/01/26 01:03:25;;;;;;;106.20;45.92;;;0.40;99.90;;;;;;5136720;27;20030;-74
2022/01/26 01:06:02;;;;;;;141.73;58.20;;;0.40;99.90;;;;;;5136242;27;20031;-75
2022/01/26 01:08:28;;;;;;;123.70;53.17;;;0.40;99.90;;;;;;5135567;27;20025;-75
2022/01/26 01:10:56;;;;;;;126.13;52.92;;;0.30;99.90;;;;;;5134876;27;20381;-75
2022/01/26 01:13:33;;;;;;;130.93;53.40;;;0.40;99.90;;;;;;5135097;27;20142;-74
2022/01/26 01:15:59;;;;;;;136.52;55.97;;;0.40;99.90;;;;;;5133891;27;20473;-75
2022/01/26 01:24:15;;;;;;;150.05;61.95;;;0.40;99.90;;;;;;5133738;27;20057;-75
2022/01/26 01:34:02;;;;;;;106.40;45.75;;;0.40;99.90;;;;;;5134713;27;20389;-75
2022/01/26 01:36:28;;;;;;;97.97;44.75;;;0.40;99.90;;;;;;5131212;27;20015;-74
2022/01/26 01:38:55;;;;;;;97.30;44.20;;;0.40;99.90;;;;;;5134505;27;20035;-74
2022/01/26 01:41:21;;;;;;;93.13;42.13;;;0.30;99.90;;;;;;5134527;27;20043;-73
2022/01/26 01:43:47;;;;;;;83.88;38.30;;;0.30;99.90;;;;;;5133821;27;20016;-74
2022/01/26 01:46:13;;;;;;;78.35;34.67;;;0.40;99.90;;;;;;5134472;27;20019;-75
2022/01/26 01:48:39;;;;;;;88.38;40.17;;;0.30;99.90;;;;;;5133745;27;20027;-74
2022/01/26 01:51:09;;;;;;;80.85;33.47;;;0.40;99.90;;;;;;5134520;27;20023;-74
2022/01/26 01:53:39;;;;;;;77.05;34.33;;;0.40;99.90;;;;;;5134187;27;20052;-74
2022/01/26 01:56:07;;;;;;;82.40;35.78;;;0.30;99.90;;;;;;5133606;27;20114;-75
2022/01/26 01:58:33;;;;;;;75.20;33.90;;;0.30;99.90;;;;;;5133741;27;20049;-75
2022/01/26 02:01:00;;;;;;;72.45;31.35;;;0.30;99.90;;;;;;5134054;27;20080;-75
2022/01/26 02:03:26;;;;;;;125.40;44.90;;;0.30;99.90;;;;;;5133692;27;20027;-76
2022/01/26 02:05:52;;;;;;;119.45;46.25;;;0.40;99.90;;;;;;5133819;27;20023;-74
2022/01/26 02:08:18;;;;;;;78.15;33.58;;;0.40;99.90;;;;;;5133647;27;20050;-75
2022/01/26 02:10:45;;;;;;;73.45;31.33;;;0.40;99.90;;;;;;5133268;27;20081;-75
2022/01/26 02:13:25;;;;;;;70.35;30.55;;;0.40;99.90;;;;;;5133944;27;20023;-76
2022/01/26 02:16:04;;;;;;;57.03;25.55;;;0.40;99.90;;;;;;5131078;27;20428;-75
2022/01/26 02:21:25;;;;;;;70.40;33.08;;;0.40;99.90;;;;;;5133858;27;20028;-75
2022/01/26 02:57:29;;;;;;;76.60;36.50;;;0.50;99.90;;;;;;5130406;28;20030;-75
2022/01/26 03:00:18;;;;;;;95.43;38.65;;;0.40;99.90;;;;;;5130522;28;20031;-74
2022/01/26 03:02:54;;;;;;;88.63;35.70;;;0.50;99.90;;;;;;5131280;28;20436;-75
2022/01/26 03:05:26;;;;;;;90.28;38.75;;;0.50;99.90;;;;;;5135402;27;20022;-75
2022/01/26 03:08:02;;;;;;;62.22;27.55;;;0.40;99.90;;;;;;5134810;27;20026;-76
2022/01/26 03:12:59;;;;;;;71.95;30.73;;;0.50;99.90;;;;;;5137033;27;20023;-75
2022/01/26 03:15:34;;;;;;;80.57;32.40;;;0.50;99.90;;;;;;5137184;27;20023;-75
2022/01/26 03:18:36;;;;;;;69.22;30.40;;;0.50;99.90;;;;;;5137285;27;20030;-75
2022/01/26 03:21:05;;;;;;;63.70;30.77;;;0.50;99.90;;;;;;5137001;27;20034;-74
2022/01/26 03:34:19;;;;;;;62.72;26.45;;;0.60;99.90;;;;;;5136740;27;20462;-76
2022/01/26 03:39:19;;;;;;;62.95;27.45;;;0.60;99.90;;;;;;5136880;27;20027;-75
2022/01/26 03:41:53;;;;;;;62.75;26.08;;;0.60;99.90;;;;;;5136509;27;20030;-75
2022/01/26 03:44:19;;;;;;;52.80;24.25;;;0.60;99.90;;;;;;5136849;27;20030;-74
2022/01/26 03:46:47;;;;;;;47.25;24.50;;;0.50;99.90;;;;;;5136478;27;20023;-75
2022/01/26 03:49:14;;;;;;;51.67;22.73;;;0.60;99.90;;;;;;5136439;27;20019;-74
2022/01/26 03:51:40;;;;;;;47.38;21.92;;;0.50;99.90;;;;;;5136648;27;20019;-75
2022/01/26 03:54:07;;;;;;;49.92;24.30;;;0.60;99.90;;;;;;5136533;27;20454;-76
2022/01/26 03:56:34;;;;;;;53.75;25.25;;;0.60;99.90;;;;;;5126485;27;20368;-75
2022/01/26 03:59:00;;;;;;;56.35;25.13;;;0.50;99.90;;;;;;5136315;27;20043;-75
2022/01/26 04:01:27;;;;;;;54.47;24.10;;;0.60;99.90;;;;;;5136370;27;20027;-74
2022/01/26 04:03:53;;;;;;;54.10;23.95;;;0.60;99.90;;;;;;5136171;27;20047;-75
2022/01/26 04:06:19;;;;;;;45.45;22.70;;;0.60;99.90;;;;;;5136341;27;20440;-75
2022/01/26 04:08:45;;;;;;;55.17;24.65;;;0.50;99.90;;;;;;5136019;27;20065;-75
2022/01/26 04:13:39;;;;;;;53.63;24.92;;;0.50;99.90;;;;;;5137545;27;20490;-75
2022/01/26 04:16:06;;;;;;;58.85;26.80;;;0.50;99.90;;;;;;5136832;27;20052;-75
2022/01/26 04:18:36;;;;;;;62.10;27.20;;;0.60;99.90;;;;;;5137392;27;20043;-76
2022/01/26 04:21:12;;;;;;;59.55;25.85;;;0.60;99.90;;;;;;5137528;27;20015;-74
2022/01/26 04:23:47;;;;;;;55.88;26.10;;;0.50;99.90;;;;;;5137278;27;20023;-74
2022/01/26 04:26:16;;;;;;;51.70;24.85;;;0.50;99.90;;;;;;5136047;27;20415;-74
2022/01/26 04:28:49;;;;;;;54.90;26.20;;;0.50;99.90;;;;;;5137381;27;20070;-73
2022/01/26 04:31:16;;;;;;;66.07;30.13;;;0.50;99.90;;;;;;5137151;27;20027;-75
2022/01/26 04:33:42;;;;;;;64.60;27.77;;;0.50;99.90;;;;;;5137268;27;20023;-74
2022/01/26 04:36:12;;;;;;;61.53;28.75;;;0.50;99.90;;;;;;5136945;27;20019;-74
2022/01/26 04:38:44;;;;;;;57.78;29.55;;;0.60;99.90;;;;;;5136906;27;20070;-73
2022/01/26 04:43:39;;;;;;;62.45;30.58;;;0.60;99.90;;;;;;5136952;27;20054;-74
2022/01/26 04:46:06;;;;;;;61.15;28.40;;;0.60;99.90;;;;;;5136675;27;20027;-75
2022/01/26 04:48:32;;;;;;;64.03;30.02;;;0.60;99.90;;;;;;5137034;27;20455;-74
2022/01/26 04:50:58;;;;;;;69.95;30.55;;;0.60;99.90;;;;;;5136616;27;20019;-74
2022/01/26 04:53:24;;;;;;;57.47;27.73;;;0.60;99.90;;;;;;5136938;27;20027;-74
2022/01/26 04:55:50;;;;;;;58.42;27.92;;;0.60;99.90;;;;;;5136869;27;20019;-74
2022/01/26 04:58:16;;;;;;;62.67;28.17;;;0.60;99.90;;;;;;5136364;27;20039;-75
2022/01/26 05:00:41;;;;;;;72.88;29.85;;;0.60;99.90;;;;;;5136767;27;20447;-75
2022/01/26 05:03:07;;;;;;;62.08;27.20;;;0.60;99.90;;;;;;5137214;27;20050;-75
2022/01/26 05:05:33;;;;;;;70.45;29.33;;;0.60;99.90;;;;;;5136299;27;20465;-74
2022/01/26 05:07:59;;;;;;;75.15;33.42;;;0.60;99.90;;;;;;5136245;27;20485;-74
2022/01/26 05:10:24;;;;;;;68.03;30.55;;;0.60;99.90;;;;;;5136285;27;20027;-74
2022/01/26 05:12:50;;;;;;;61.95;29.13;;;0.60;99.90;;;;;;5136398;27;20031;-75
2022/01/26 05:15:20;;;;;;;72.05;31.25;;;0.60;99.90;;;;;;5136466;27;20023;-76
2022/01/26 05:17:46;;;;;;;66.57;29.70;;;0.60;99.90;;;;;;5136296;27;20027;-74
2022/01/26 05:20:12;;;;;;;66.72;29.92;;;0.60;99.90;;;;;;5135796;27;20072;-75
2022/01/26 05:22:40;;;;;;;63.90;28.27;;;0.60;99.90;;;;;;5136367;27;20450;-75
2022/01/26 05:25:07;;;;;;;55.88;26.55;;;0.60;99.90;;;;;;5136289;27;20023;-76
2022/01/26 05:27:33;;;;;;;64.35;27.25;;;0.60;99.90;;;;;;5134934;27;20030;-75
2022/01/26 05:29:59;;;;;;;99.85;39.42;;;0.60;99.90;;;;;;5136354;27;20102;-74
2022/01/26 05:32:25;;;;;;;145.05;55.00;;;0.60;99.90;;;;;;5135938;27;20583;-74
2022/01/26 05:34:52;;;;;;;211.45;77.35;;;0.60;99.90;;;;;;5135823;27;20023;-74
2022/01/26 05:37:18;;;;;;;241.90;80.05;;;0.60;99.90;;;;;;5134475;27;20096;-74
2022/01/26 05:39:44;;;;;;;271.73;92.00;;;0.60;99.90;;;;;;5135441;27;20096;-76
2022/01/26 05:42:10;;;;;;;317.02;111.57;;;0.60;99.90;;;;;;5136199;27;20019;-74
2022/01/26 05:44:35;;;;;;;254.27;87.40;;;0.60;99.90;;;;;;5135634;27;20455;-75
2022/01/26 05:47:03;;;;;;;219.50;70.78;;;0.70;99.90;;;;;;5135538;27;20050;-74
2022/01/26 05:49:29;;;;;;;201.00;65.57;;;0.70;99.90;;;;;;5135803;27;20034;-74
2022/01/26 05:51:55;;;;;;;185.20;61.08;;;0.70;99.90;;;;;;5135439;27;20031;-74
2022/01/26 05:54:20;;;;;;;180.43;60.63;;;0.70;99.90;;;;;;5135476;27;20023;-74
2022/01/26 05:56:49;;;;;;;157.07;57.30;;;0.70;99.90;;;;;;5135643;27;20058;-74
2022/01/26 05:59:20;;;;;;;103.22;43.13;;;0.70;99.90;;;;;;5135813;27;20078;-74
2022/01/26 06:01:48;;;;;;;94.03;42.72;;;0.70;99.90;;;;;;5135078;27;20106;-75
2022/01/26 06:04:14;;;;;;;77.25;34.60;;;0.80;99.90;;;;;;5135218;27;20414;-74
2022/01/26 06:06:40;;;;;;;58.25;28.58;;;0.80;99.90;;;;;;5133665;27;20475;-73
2022/01/26 06:09:06;;;;;;;60.40;27.65;;;0.70;99.90;;;;;;5134702;27;20027;-73
2022/01/26 06:11:31;;;;;;;75.55;33.40;;;0.80;99.90;;;;;;5135404;27;20518;-74
2022/01/26 06:13:57;;;;;;;83.25;36.33;;;0.70;99.90;;;;;;5135099;27;20027;-74
2022/01/26 06:16:23;;;;;;;86.38;37.75;;;0.80;99.90;;;;;;5135236;27;20055;-74
2022/01/26 06:18:49;;;;;;;80.25;34.45;;;0.70;99.90;;;;;;5135170;27;20388;-75
2022/01/26 06:21:15;;;;;;;82.18;34.05;;;0.80;99.90;;;;;;5135181;27;20030;-74
2022/01/26 06:23:42;;;;;;;85.80;37.28;;;0.70;99.90;;;;;;5133301;27;20027;-75
2022/01/26 06:26:07;;;;;;;89.40;38.13;;;0.80;99.90;;;;;;5135624;27;20027;-74
2022/01/26 06:28:33;;;;;;;90.30;38.85;;;0.80;99.90;;;;;;5134451;27;20031;-74
2022/01/26 06:31:03;;;;;;;114.63;46.75;;;0.80;99.90;;;;;;5134771;27;20489;-75
2022/01/26 06:33:32;;;;;;;106.70;44.65;;;0.80;99.90;;;;;;5135009;27;20026;-74
2022/01/26 06:35:59;;;;;;;100.82;43.45;;;0.80;99.90;;;;;;5134415;27;20463;-74
2022/01/26 06:38:27;;;;;;;114.40;45.30;;;0.80;99.90;;;;;;5134479;27;20074;-75
2022/01/26 06:40:57;;;;;;;115.30;44.72;;;0.90;99.90;;;;;;5134506;27;20439;-74
2022/01/26 06:43:26;;;;;;;157.70;61.10;;;0.80;99.90;;;;;;5134547;27;20056;-74
2022/01/26 06:45:58;;;;;;;208.32;79.70;;;0.80;99.90;;;;;;5135211;27;20459;-74
2022/01/26 06:51:10;;;;;;;252.13;110.32;;;0.90;99.90;;;;;;5134870;27;20031;-75
2022/01/26 06:53:35;;;;;;;238.65;108.55;;;0.90;99.90;;;;;;5133399;28;20070;-75
2022/01/26 06:56:01;;;;;;;299.35;140.18;;;0.90;99.90;;;;;;5134769;27;20466;-73
2022/01/26 06:58:27;;;;;;;209.70;103.78;;;0.90;99.90;;;;;;5134353;28;20498;-75
2022/01/26 07:00:54;;;;;;;120.88;55.42;;;0.90;99.90;;;;;;5134005;27;20130;-74
2022/01/26 07:03:20;;;;;;;128.10;55.05;;;1.00;99.90;;;;;;5134460;28;20110;-75
2022/01/26 07:05:47;;;;;;;120.35;52.80;;;1.00;99.90;;;;;;5134495;27;20027;-74
2022/01/26 07:08:12;;;;;;;126.45;53.10;;;0.90;99.90;;;;;;5134791;27;20114;-73
2022/01/26 07:10:38;;;;;;;150.82;64.47;;;1.00;99.90;;;;;;5134814;27;20058;-74
2022/01/26 07:13:04;;;;;;;190.85;86.85;;;1.00;99.90;;;;;;5134369;27;20063;-75
2022/01/26 07:23:27;;;;;;;470.83;196.02;;;1.10;99.90;;;;;;5134211;27;20024;-74
2022/01/26 07:25:53;;;;;;;321.58;133.43;;;1.10;99.90;;;;;;5134262;27;20049;-75
2022/01/26 07:28:18;;;;;;;367.92;162.05;;;1.10;99.90;;;;;;5134136;28;20080;-74
2022/01/26 07:30:44;;;;;;;322.35;139.93;;;1.10;99.90;;;;;;5134418;27;20027;-75
2022/01/26 07:33:10;;;;;;;252.35;116.60;;;1.10;99.90;;;;;;5134438;27;20035;-74
2022/01/26 07:35:36;;;;;;;216.55;106.57;;;1.10;99.90;;;;;;5134376;28;20088;-74
2022/01/26 07:38:04;;;;;;;155.88;78.32;;;1.10;99.90;;;;;;5134305;27;20031;-75
2022/01/26 07:40:30;;;;;;;146.30;72.82;;;1.20;99.90;;;;;;5134139;27;20102;-74
2022/01/26 07:42:56;;;;;;;133.98;65.03;;;1.20;99.90;;;;;;5133747;28;20156;-74
2022/01/26 07:45:22;;;;;;;108.57;54.92;;;1.20;99.90;;;;;;5133964;28;20023;-75
2022/01/26 07:47:51;;;;;;;95.88;44.70;;;1.20;99.90;;;;;;5132939;28;20034;-74
2022/01/26 07:50:19;;;;;;;111.40;49.97;;;1.20;99.90;;;;;;5134115;27;20019;-75
2022/01/26 07:52:45;;;;;;;114.07;51.17;;;1.20;99.90;;;;;;5137664;27;20094;-74
2022/01/26 07:55:15;;;;;;;123.10;56.20;;;1.20;99.90;;;;;;5138334;27;20031;-75
2022/01/26 07:57:43;;;;;;;128.20;58.45;;;1.30;99.90;;;;;;5137602;27;20043;-73
2022/01/26 08:00:11;;;;;;;110.60;49.67;;;1.30;99.90;;;;;;5137702;27;20035;-75
2022/01/26 08:02:37;;;;;;;107.68;46.22;;;1.30;99.90;;;;;;5138209;27;20034;-75
2022/01/26 08:05:03;;;;;;;104.43;46.53;;;1.30;99.90;;;;;;5137523;27;20024;-75
2022/01/26 08:07:29;;;;;;;129.90;60.10;;;1.30;99.90;;;;;;5137583;27;20087;-75
2022/01/26 08:09:54;;;;;;;132.43;60.83;;;1.30;99.90;;;;;;5136496;27;20067;-76
2022/01/26 08:12:21;;;;;;;138.55;61.90;;;1.30;99.90;;;;;;5137356;27;20031;-76
2022/01/26 08:14:48;;;;;;;133.85;57.85;;;1.30;99.90;;;;;;5137958;27;20027;-74
2022/01/26 08:17:15;;;;;;;122.07;52.50;;;1.40;99.90;;;;;;5137818;27;20374;-76
2022/01/26 08:19:41;;;;;;;118.45;51.35;;;1.40;99.90;;;;;;5137508;27;20027;-75
2022/01/26 08:22:07;;;;;;;155.23;64.80;;;1.40;99.90;;;;;;5137510;27;20027;-75
2022/01/26 08:24:33;;;;;;;134.02;55.58;;;1.40;99.90;;;;;;5136902;27;20060;-75
2022/01/26 08:27:08;;;;;;;119.15;50.28;;;1.40;99.90;;;;;;5137454;27;20023;-74
2022/01/26 08:29:50;;;;;;;150.43;58.17;;;1.40;99.90;;;;;;5137330;27;20087;-75
2022/01/26 08:32:16;;;;;;;143.27;59.30;;;1.40;99.90;;;;;;5137375;27;20019;-75
2022/01/26 08:34:42;;;;;;;166.65;67.30;;;1.40;99.90;;;;;;5137544;27;20051;-75
2022/01/26 08:37:08;;;;;;;150.30;63.53;;;1.40;99.90;;;;;;5137525;27;20066;-77
2022/01/26 08:39:34;;;;;;;167.68;73.30;;;1.40;99.90;;;;;;5135606;27;20027;-75
2022/01/26 08:42:01;;;;;;;233.30;99.88;;;1.40;99.90;;;;;;5136978;27;20035;-75
2022/01/26 08:44:27;;;;;;;180.95;78.25;;;1.40;99.90;;;;;;5137351;27;20027;-75
2022/01/26 08:46:54;;;;;;;152.38;67.53;;;1.40;99.90;;;;;;5136460;27;20043;-75
2022/01/26 08:49:21;;;;;;;100.90;47.13;;;1.40;99.90;;;;;;5137288;27;20471;-75
2022/01/26 08:51:49;;;;;;;115.88;50.70;;;1.40;99.90;;;;;;5135720;27;20057;-75
2022/01/26 08:54:16;;;;;;;111.22;51.50;;;1.40;99.90;;;;;;5136772;27;20023;-76
2022/01/26 08:56:42;;;;;;;103.68;47.90;;;1.40;99.90;;;;;;5136926;27;20050;-75
2022/01/26 08:59:07;;;;;;;111.38;49.42;;;1.40;99.90;;;;;;5136727;27;20113;-75
2022/01/26 09:01:33;;;;;;;109.65;50.00;;;1.40;99.90;;;;;;5136380;27;20525;-75
2022/01/26 09:03:59;;;;;;;90.22;41.13;;;1.40;99.90;;;;;;5136778;27;20023;-75
2022/01/26 09:06:25;;;;;;;90.65;41.97;;;1.30;99.90;;;;;;5136343;27;20019;-75
2022/01/26 09:08:59;;;;;;;94.53;41.28;;;1.30;99.90;;;;;;5136409;27;20023;-75
2022/01/26 09:11:25;;;;;;;105.78;47.58;;;1.30;99.90;;;;;;5136420;27;20106;-76
2022/01/26 09:13:57;;;;;;;120.32;47.67;;;1.30;99.90;;;;;;5136225;27;20051;-74
2022/01/26 09:16:24;;;;;;;;;;;1.30;99.90;;;;;;5137042;27;20019;-75
2022/01/26 09:18:53;;;;;;;111.95;44.10;;;1.30;99.90;;;;;;5136553;27;19911;-75
2022/01/26 09:21:21;;;;;;;93.00;43.75;;;1.40;99.90;;;;;;5135797;27;20051;-74
2022/01/26 09:23:47;;;;;;;101.65;45.10;;;1.40;99.90;;;;;;5136335;27;20042;-77
2022/01/26 09:26:13;;;;;;;86.43;41.20;;;1.40;99.90;;;;;;5135192;27;20015;-75
2022/01/26 09:28:39;;;;;;;89.28;40.03;;;1.40;99.90;;;;;;5134786;27;20023;-75
2022/01/26 09:31:05;;;;;;;90.50;41.53;;;1.50;99.90;;;;;;5135116;27;20382;-76
2022/01/26 09:33:31;;;;;;;93.43;41.60;;;1.50;99.90;;;;;;5135785;27;20062;-74
2022/01/26 09:35:56;;;;;;;105.93;46.58;;;1.60;99.90;;;;;;5135681;27;20446;-75
2022/01/26 09:38:22;;;;;;;109.18;51.60;;;1.60;99.90;;;;;;5135826;27;20042;-76
2022/01/26 09:40:49;;;;;;;106.28;46.75;;;1.60;99.90;;;;;;5135096;27;20451;-76
2022/01/26 09:43:16;;;;;;;96.70;44.28;;;1.60;99.90;;;;;;5132219;27;20034;-74
2022/01/26 09:45:42;;;;;;;105.97;45.10;;;1.60;99.90;;;;;;5135731;27;20038;-76
2022/01/26 09:48:08;;;;;;;116.47;47.67;;;1.60;99.90;;;;;;5135529;27;20027;-76
2022/01/26 09:50:35;;;;;;;102.32;44.22;;;1.60;99.90;;;;;;5135785;27;20060;-77
2022/01/26 09:53:01;;;;;;;89.00;40.67;;;1.60;99.90;;;;;;5135734;27;20027;-75
2022/01/26 09:55:27;;;;;;;93.97;41.97;;;1.60;99.90;;;;;;5135061;27;20027;-76
2022/01/26 09:57:59;;;;;;;95.53;43.38;;;1.60;99.90;;;;;;5135411;27;20108;-74
2022/01/26 10:00:27;;;;;;;94.65;42.38;;;1.70;99.90;;;;;;5135717;27;20030;-75
2022/01/26 10:03:05;;;;;;;101.43;45.67;;;1.60;99.90;;;;;;5135152;27;20046;-74
2022/01/26 10:05:43;;;;;;;86.05;39.00;;;1.60;99.90;;;;;;5135354;27;20027;-76
2022/01/26 10:08:51;;;;;;;83.47;41.20;;;1.60;99.90;;;;;;5135474;27;20037;-75
2022/01/26 10:19:05;;;;;;;89.50;39.40;;;1.70;99.90;;;;;;5134462;27;20038;-74
2022/01/26 10:21:31;;;;;;;93.03;40.42;;;1.70;99.90;;;;;;5134837;27;20035;-75
2022/01/26 10:24:09;;;;;;;103.28;46.13;;;1.80;99.90;;;;;;5134833;27;20044;-75
2022/01/26 10:26:35;;;;;;;157.93;76.95;;;1.70;99.90;;;;;;5134927;27;20102;-75
2022/01/26 10:29:03;;;;;;;112.57;50.83;;;1.80;99.90;;;;;;5135114;27;20050;-75
2022/01/26 10:31:39;;;;;;;129.50;58.15;;;1.80;99.90;;;;;;5134592;27;20476;-75
2022/01/26 10:34:15;;;;;;;153.52;65.95;;;1.80;99.90;;;;;;5135187;27;20106;-75
2022/01/26 10:36:51;;;;;;;133.90;55.70;;;1.80;99.90;;;;;;5135125;27;20055;-74
2022/01/26 10:39:44;;;;;;;111.97;47.60;;;1.90;99.90;;;;;;5134662;27;20019;-74
2022/01/26 10:42:17;;;;;;;103.18;42.90;;;1.80;99.90;;;;;;5135030;27;20025;-75
2022/01/26 10:44:51;;;;;;;87.30;39.97;;;1.80;99.90;;;;;;5134916;27;20027;-75
2022/01/26 10:47:27;;;;;;;98.75;38.05;;;1.80;99.90;;;;;;5135037;27;20024;-76
2022/01/26 10:50:18;;;;;;;104.55;42.40;;;1.80;99.90;;;;;;5134997;27;20106;-74
2022/01/26 10:52:41;;;;;;;122.55;52.10;;;1.80;99.90;;;;;;5134126;27;20031;-75
2022/01/26 10:55:09;;;;;;;122.20;50.17;;;1.80;99.90;;;;;;5134179;27;20023;-75
2022/01/26 10:57:35;;;;;;;106.60;43.72;;;1.80;99.90;;;;;;5134347;27;20042;-74
2022/01/26 11:00:03;;;;;;;203.60;84.50;;;1.80;99.90;;;;;;5134388;27;20035;-75
2022/01/26 11:02:33;;;;;;;143.30;59.72;;;1.80;99.90;;;;;;5134904;27;20087;-75
2022/01/26 11:04:59;;;;;;;303.33;125.78;;;1.80;99.90;;;;;;5134651;27;20025;-76
2022/01/26 11:07:37;;;;;;;455.35;195.02;;;1.80;99.90;;;;;;5134326;28;20106;-76
2022/01/26 11:10:06;;;;;;;217.38;91.80;;;1.90;99.90;;;;;;5134669;27;20084;-75
2022/01/26 11:12:33;;;;;;;168.10;77.30;;;1.80;99.90;;;;;;5134362;27;20096;-76
2022/01/26 11:15:08;;;;;;;155.45;72.85;;;1.80;99.90;;;;;;5134613;27;20034;-75
2022/01/26 11:17:44;;;;;;;126.85;55.53;;;1.70;99.90;;;;;;5134408;27;20421;-77
2022/01/26 11:20:19;;;;;;;154.32;79.90;;;1.80;99.90;;;;;;5134054;27;20031;-76
2022/01/26 11:22:54;;;;;;;100.43;49.38;;;1.70;99.90;;;;;;5133438;28;20023;-75
2022/01/26 11:25:22;;;;;;;97.78;50.17;;;1.70;99.90;;;;;;5135475;27;20029;-75
2022/01/26 11:27:49;;;;;;;105.60;47.60;;;1.70;99.90;;;;;;5136978;27;20023;-76
2022/01/26 11:30:18;;;;;;;101.75;44.25;;;1.80;99.90;;;;;;5138717;27;20054;-78
2022/01/26 11:32:59;;;;;;;90.40;43.17;;;1.70;99.90;;;;;;5138502;27;20023;-76
2022/01/26 11:35:28;;;;;;;103.10;47.22;;;1.80;99.90;;;;;;5137998;27;20020;-74
2022/01/26 11:38:27;;;;;;;112.50;50.65;;;1.80;99.90;;;;;;5137040;27;20080;-75
2022/01/26 11:46:32;;;;;;;156.55;74.75;;;1.90;99.90;;;;;;5138134;27;20087;-76
2022/01/26 11:49:07;;;;;;;144.82;69.60;;;1.90;99.90;;;;;;5137914;27;20031;-74
2022/01/26 11:51:51;;;;;;;170.15;78.50;;;1.90;99.90;;;;;;5137242;27;20366;-73
2022/01/26 11:54:19;;;;;;;144.15;64.88;;;2.00;99.90;;;;;;5137882;27;20019;-76
2022/01/26 11:57:06;;;;;;;154.63;66.85;;;1.90;99.90;;;;;;5138090;27;20027;-75
2022/01/26 11:59:34;;;;;;;174.25;72.30;;;2.00;99.90;;;;;;5138110;27;20043;-76
2022/01/26 12:02:19;;;;;;;142.65;61.72;;;2.00;99.90;;;;;;5137626;27;20064;-76
2022/01/26 12:05:00;;;;;;;109.90;48.67;;;2.00;99.90;;;;;;5137999;27;20015;-76
2022/01/26 12:07:26;;;;;;;94.15;44.72;;;2.00;99.90;;;;;;5136746;27;20046;-76
2022/01/26 12:09:52;;;;;;;89.07;41.90;;;2.10;99.90;;;;;;5137800;27;20023;-76
2022/01/26 12:12:20;;;;;;;83.72;39.47;;;2.00;99.90;;;;;;5137917;27;20019;-75
2022/01/26 12:15:07;;;;;;;86.93;39.58;;;2.00;99.90;;;;;;5136366;27;20477;-76
2022/01/26 12:17:38;;;;;;;94.75;43.05;;;2.10;99.90;;;;;;5137757;27;20030;-76
2022/01/26 12:32:07;;;;;;;85.28;40.00;;;2.00;99.90;;;;;;5137572;27;20035;-75
2022/01/26 12:34:34;;;;;;;79.28;38.20;;;2.00;99.90;;;;;;5137384;27;20030;-75
2022/01/26 12:45:08;;;;;;;;;;;2.00;99.90;;;;;;5137321;27;20023;-76
2022/01/26 12:47:34;;;;;;;78.13;35.80;;;1.90;99.90;;;;;;5137120;27;20291;-75
2022/01/26 12:50:00;;;;;;;91.25;42.35;;;1.90;99.90;;;;;;5137067;27;20027;-75
2022/01/26 12:52:28;;;;;;;98.18;45.08;;;2.00;99.90;;;;;;5135372;27;20034;-75
2022/01/26 12:54:54;;;;;;;81.53;39.25;;;1.90;99.90;;;;;;5136924;27;20050;-76
2022/01/26 12:57:20;;;;;;;85.70;42.92;;;1.90;99.90;;;;;;5135049;27;20095;-76
2022/01/26 12:59:45;;;;;;;89.43;41.70;;;2.00;99.90;;;;;;5136888;27;20027;-74
2022/01/26 13:02:11;;;;;;;146.85;57.05;;;2.00;99.90;;;;;;5136988;27;20031;-75
2022/01/26 13:04:37;;;;;;;138.73;60.58;;;2.00;99.90;;;;;;5136150;27;20029;-74
2022/01/26 13:07:04;;;;;;;104.93;45.72;;;2.00;99.90;;;;;;5136742;27;20088;-74
2022/01/26 13:09:38;;;;;;;135.13;59.92;;;2.00;99.90;;;;;;5136459;27;20143;-74
2022/01/26 13:12:05;;;;;;;103.25;46.40;;;2.00;99.90;;;;;;5136355;27;20080;-74
2022/01/26 13:14:53;;;;;;;117.80;51.35;;;2.00;99.90;;;;;;5135308;27;20118;-75
2022/01/26 13:17:34;;;;;;;100.45;45.70;;;2.00;99.90;;;;;;5136098;27;20405;-77
2022/01/26 13:20:33;;;;;;;133.50;55.47;;;2.00;99.90;;;;;;5134890;27;20034;-74
2022/01/26 13:26:02;;;;;;;94.97;44.50;;;2.00;99.90;;;;;;5136012;27;20034;-75
2022/01/26 13:36:55;;;;;;;277.17;106.43;;;2.00;99.90;;;;;;5136304;27;20058;-74
2022/01/26 13:47:45;;;;;;;147.55;73.18;;;2.00;99.90;;;;;;5135133;27;20080;-76
2022/01/26 13:58:18;;;;;;;150.07;71.45;;;2.00;99.90;;;;;;5135096;27;20043;-75
2022/01/26 14:00:43;;;;;;;156.93;74.90;;;2.00;99.90;;;;;;5134665;27;20057;-75
2022/01/26 14:03:12;;;;;;;125.55;58.38;;;2.00;99.90;;;;;;5135540;27;20023;-75
2022/01/26 14:05:37;;;;;;;157.13;75.88;;;2.00;99.90;;;;;;5135382;27;20071;-76
2022/01/26 14:08:03;;;;;;;153.40;72.05;;;2.00;99.90;;;;;;5134965;27;20023;-76
2022/01/26 14:10:29;;;;;;;207.43;94.85;;;2.00;99.90;;;;;;5135344;27;20024;-76
2022/01/26 14:12:56;;;;;;;211.85;92.90;;;2.10;99.90;;;;;;5134985;27;20050;-75
2022/01/26 14:15:27;;;;;;;162.45;73.93;;;2.10;99.90;;;;;;5134875;27;20144;-76
2022/01/26 14:20:51;;;;;;;185.20;81.85;;;2.10;99.90;;;;;;5118141;27;20039;-75
2022/01/26 14:25:47;;;;;;;233.25;113.30;;;2.10;99.90;;;;;;5134679;27;19910;-75
2022/01/26 14:28:16;;;;;;;146.32;71.07;;;2.00;99.90;;;;;;5134639;27;20033;-75
2022/01/26 14:33:45;;;;;;;138.55;66.18;;;2.10;99.90;;;;;;5134955;27;20477;-76
2022/01/26 15:49:18;;;;;;;250.65;122.05;;;2.00;99.90;;;;;;5133897;28;20083;-76
2022/01/26 16:05:54;;;;;;;445.75;199.00;;;1.90;99.90;;;;;;5134052;28;20075;-75
2022/01/26 16:27:34;;;;;;;323.73;158.30;;;1.90;99.90;;;;;;5137144;27;20034;-74
2022/01/26 16:37:58;;;;;;;615.65;328.35;;;1.90;99.90;;;;;;5136915;27;20390;-76
2022/01/26 17:34:26;;;;;;;308.70;139.00;;;2.00;99.90;;;;;;5136155;27;20037;-76
2022/01/26 18:51:02;;;;;;;113.30;50.72;;;2.10;99.90;;;;;;5134460;27;20576;-75
2022/01/26 18:53:28;;;;;;;235.30;88.32;;;2.10;99.90;;;;;;5134247;27;20152;-76
2022/01/26 18:55:54;;;;;;;169.55;66.88;;;2.20;99.90;;;;;;5134458;27;20431;-78
2022/01/26 18:58:20;;;;;;;236.25;82.53;;;2.20;99.90;;;;;;5133031;27;20391;-76
2022/01/26 19:00:46;;;;;;;170.35;72.15;;;2.20;99.90;;;;;;5130387;28;20474;-79
2022/01/26 19:03:13;;;;;;;202.15;79.20;;;2.20;99.90;;;;;;5132801;27;20378;-78
2022/01/26 19:05:39;;;;;;;166.77;68.43;;;2.30;99.90;;;;;;5134082;27;20035;-77
2022/01/26 19:08:05;;;;;;;168.13;69.57;;;2.30;99.90;;;;;;5122988;28;20030;-78
2022/01/26 19:10:31;;;;;;;181.52;69.30;;;2.30;99.90;;;;;;5133239;27;20023;-77
2022/01/26 19:12:57;;;;;;;142.70;59.67;;;2.30;99.90;;;;;;5122494;28;20076;-78
2022/01/26 19:15:27;;;;;;;153.90;61.15;;;2.30;99.90;;;;;;5132388;27;20015;-78
2022/01/26 19:18:13;;;;;;;267.00;88.72;;;2.30;99.90;;;;;;5133036;27;20471;-78
2022/01/26 19:23:25;;;;;;;255.10;95.35;;;2.30;99.90;;;;;;5132370;28;20027;-78
2022/01/26 19:25:58;;;;;;;290.40;106.20;;;2.30;99.90;;;;;;5132469;28;20123;-79
2022/01/26 19:28:29;;;;;;;239.88;95.15;;;2.20;99.90;;;;;;5120183;28;20059;-78
2022/01/26 19:45:07;;;;;;;194.18;88.45;;;2.10;99.90;;;;;;5132478;27;20106;-79
2022/01/26 19:52:57;;;;;;;191.27;80.53;;;2.10;99.90;;;;;;5134547;27;20031;-79
2022/01/26 19:55:25;;;;;;;176.25;78.68;;;2.10;99.90;;;;;;5136725;27;20023;-78